サンパウロ/グアルーリョス の空港の天気 - METARとTAF

グアルーリョス国際空港 (サンパウロ) ( SBGR / GRU ) - ブラジル サンパウロ州サンパウロ市
飛行場実況気象(Metar)
観測時間12/10 03:00 BRST (12/10 05:00 UTC)
風向・風速東北東 4m/s
視程10km以上
天気現象
なし
気温15℃
湿度100%
気圧1022hPa
METARSBGR 100500Z 07008KT CAVOK 15/15 Q1022
過去の天気等 Google飛行場航空写真 Wunderground天気予報

過去48時間のMETAR

飛行場予報(TAF)
発表時間: 12/09 23:00 BRST (12/10 01:00 UTC)
予報対象時間: 10日4時 BRST ~ 11日10時 BRST
風向・風速東北東 3m/s
視程10km以上
なし
10日6時 BRST から 確率 30% で
視程7000m
全天の8割程度の雲 雲底高度 180m
10日9時 BRST ~ 10日11時 BRST に徐々に
風向・風速北北西 2m/s
10日11時 BRST から 確率 40% で
風向・風速西 3m/s
10日14時 BRST ~ 10日16時 BRST に徐々に
風向・風速南東 5m/s
11日0時 BRST ~ 11日2時 BRST に徐々に
風向・風速東北東 3m/s
TAF SBGR 100100Z 1006/1112 07005KT CAVOK TN15/1008Z TX28/1017Z
PROB30 1008/1010 7000 BKN006
BECMG 1011/1013 34004KT
PROB40 1013/1016 27005KT
BECMG 1016/1018 13010KT
BECMG 1102/1104 07005KT RMK PHH